createdAt,value
2019-03-16T00:02:00.598Z,26.70
2019-03-16T00:04:31.696Z,26.70
2019-03-16T00:07:02.727Z,26.70
2019-03-16T00:09:34.035Z,26.70
2019-03-16T00:12:05.190Z,26.70
2019-03-16T00:14:36.164Z,26.70
2019-03-16T00:17:09.357Z,26.70
2019-03-16T00:19:40.346Z,26.70
2019-03-16T00:22:15.603Z,26.70
2019-03-16T00:24:46.545Z,26.80
2019-03-16T00:27:17.587Z,26.80
2019-03-16T00:29:48.381Z,26.80
2019-03-16T00:32:19.296Z,26.80
2019-03-16T00:34:50.339Z,26.90
2019-03-16T00:37:21.484Z,26.90
2019-03-16T00:39:52.226Z,26.90
2019-03-16T00:42:23.556Z,26.90
2019-03-16T00:45:00.539Z,26.90
2019-03-16T00:47:36.780Z,26.90
2019-03-16T00:50:13.070Z,26.90
2019-03-16T00:52:44.525Z,26.80
2019-03-16T00:55:15.998Z,26.90
2019-03-16T00:57:47.082Z,26.90
2019-03-16T01:00:19.018Z,26.90
2019-03-16T01:02:56.081Z,27.00
2019-03-16T01:05:23.534Z,27.10
2019-03-16T01:07:54.645Z,27.20
2019-03-16T01:10:25.930Z,27.20
2019-03-16T01:12:57.955Z,27.20
2019-03-16T01:15:29.170Z,27.20
2019-03-16T01:18:00.895Z,27.20
2019-03-16T01:20:32.470Z,27.20
2019-03-16T01:23:03.827Z,27.20
2019-03-16T01:25:35.021Z,27.20
2019-03-16T01:28:06.260Z,27.20
2019-03-16T01:30:37.346Z,27.20
2019-03-16T01:33:09.366Z,27.30
2019-03-16T01:35:40.408Z,27.30
2019-03-16T01:38:13.093Z,27.20
2019-03-16T01:40:46.114Z,27.20
2019-03-16T01:43:17.183Z,27.20
2019-03-16T01:45:48.953Z,27.20
2019-03-16T01:48:21.274Z,27.20
2019-03-16T01:50:53.323Z,27.20
2019-03-16T01:53:25.553Z,27.20
2019-03-16T01:55:59.672Z,27.20
2019-03-16T01:58:32.768Z,27.20
2019-03-16T02:01:04.246Z,27.30
2019-03-16T02:03:35.957Z,27.30
2019-03-16T02:06:10.938Z,27.30
2019-03-16T02:08:48.468Z,27.40
2019-03-16T02:11:21.516Z,27.50
2019-03-16T02:13:52.584Z,27.50
2019-03-16T02:16:23.282Z,27.60
2019-03-16T02:18:56.938Z,27.60
2019-03-16T02:21:29.803Z,27.70
2019-03-16T02:24:05.524Z,27.80
2019-03-16T02:26:36.211Z,27.80
2019-03-16T02:29:09.039Z,27.90
2019-03-16T02:31:44.272Z,27.90
2019-03-16T02:34:15.732Z,27.90
2019-03-16T02:36:50.250Z,28.00
2019-03-16T02:39:21.480Z,28.10
2019-03-16T02:48:17.493Z,28.20
2019-03-16T02:50:50.856Z,28.30
2019-03-16T02:53:24.044Z,28.30
2019-03-16T02:55:59.077Z,28.40
2019-03-16T02:58:29.785Z,28.40
2019-03-16T03:01:04.218Z,28.50
2019-03-16T03:03:34.977Z,28.60
2019-03-16T03:06:08.241Z,28.60
2019-03-16T03:08:39.644Z,28.60
2019-03-16T03:11:10.909Z,28.70
2019-03-16T03:13:42.488Z,28.70
2019-03-16T03:16:15.116Z,28.70
2019-03-16T03:18:49.333Z,28.80
2019-03-16T03:21:18.696Z,28.90
2019-03-16T03:23:49.473Z,28.90
2019-03-16T03:26:20.397Z,29.00
2019-03-16T03:28:51.717Z,29.10
2019-03-16T03:31:22.782Z,29.20
2019-03-16T03:34:00.854Z,29.30
2019-03-16T03:36:29.822Z,29.40
2019-03-16T03:39:01.623Z,29.50
2019-03-16T03:41:33.461Z,29.60
2019-03-16T03:44:04.946Z,29.70
2019-03-16T03:46:40.018Z,29.80
2019-03-16T03:49:11.792Z,29.90
2019-03-16T03:51:46.330Z,29.90
2019-03-16T03:54:18.049Z,30.00
2019-03-16T03:56:49.159Z,30.10
2019-03-16T03:59:22.778Z,30.20
2019-03-16T04:01:53.874Z,30.30
2019-03-16T04:04:25.089Z,30.30
2019-03-16T04:13:25.542Z,30.40
2019-03-16T04:15:57.899Z,30.50
2019-03-16T04:18:30.100Z,30.60
2019-03-16T04:21:01.588Z,30.60
2019-03-16T04:23:32.875Z,30.60
2019-03-16T04:26:03.869Z,30.60
2019-03-16T04:28:35.170Z,30.70
2019-03-16T04:31:07.413Z,30.70
2019-03-16T04:33:39.588Z,30.80
2019-03-16T04:36:12.995Z,30.80
2019-03-16T04:38:43.892Z,30.80
2019-03-16T04:41:14.907Z,30.90
2019-03-16T04:43:46.090Z,30.90
2019-03-16T04:46:18.458Z,30.90
2019-03-16T04:48:49.441Z,31.00
2019-03-16T04:51:20.362Z,30.90
2019-03-16T04:53:51.514Z,30.90
2019-03-16T04:56:30.147Z,30.90
2019-03-16T04:58:55.450Z,31.00
2019-03-16T05:01:29.282Z,30.90
2019-03-16T05:04:00.446Z,31.00
2019-03-16T05:09:54.067Z,31.00
2019-03-16T05:12:24.970Z,31.00
2019-03-16T05:14:56.154Z,31.10
2019-03-16T05:17:26.955Z,31.20
2019-03-16T05:19:58.729Z,31.20
2019-03-16T05:22:32.563Z,31.30
2019-03-16T05:25:03.607Z,31.40
2019-03-16T05:27:37.426Z,31.50
2019-03-16T05:30:11.033Z,31.50
2019-03-16T05:32:42.152Z,31.60
2019-03-16T05:35:13.424Z,31.60
2019-03-16T05:37:44.265Z,31.60
2019-03-16T05:40:15.680Z,31.60
2019-03-16T05:42:47.183Z,31.60
2019-03-16T05:45:19.206Z,31.60
2019-03-16T05:47:52.838Z,31.60
2019-03-16T05:50:28.662Z,31.70
2019-03-16T05:52:58.326Z,31.70
2019-03-16T05:55:33.265Z,31.70
2019-03-16T05:58:04.459Z,31.70
2019-03-16T06:00:36.521Z,31.70
2019-03-16T06:03:09.502Z,31.80
2019-03-16T06:05:39.868Z,31.80
2019-03-16T06:08:11.872Z,31.80
2019-03-16T06:14:08.420Z,31.80
2019-03-16T06:16:39.930Z,31.80
2019-03-16T06:19:10.992Z,31.90
2019-03-16T06:21:42.248Z,31.90
2019-03-16T06:24:14.153Z,31.90
2019-03-16T06:26:49.695Z,32.00
2019-03-16T06:29:20.859Z,32.10
2019-03-16T06:31:51.848Z,32.10
2019-03-16T06:34:23.983Z,32.20
2019-03-16T06:36:55.214Z,32.30
2019-03-16T06:39:26.225Z,32.40
2019-03-16T06:41:57.522Z,32.40
2019-03-16T06:44:28.766Z,32.40
2019-03-16T06:47:10.463Z,32.40
2019-03-16T06:49:43.530Z,32.50
2019-03-16T06:52:22.681Z,32.60
2019-03-16T06:54:55.611Z,32.60
2019-03-16T06:57:28.463Z,32.70
2019-03-16T07:00:08.413Z,32.70
2019-03-16T07:02:40.169Z,32.70
2019-03-16T07:05:14.712Z,32.70
2019-03-16T07:07:46.708Z,32.60
2019-03-16T07:10:17.858Z,32.60
2019-03-16T07:12:53.039Z,32.60
2019-03-16T07:15:26.872Z,32.60
2019-03-16T07:17:57.939Z,32.60
2019-03-16T07:20:31.797Z,32.70
2019-03-16T07:23:04.023Z,32.70
2019-03-16T07:25:35.583Z,32.80
2019-03-16T07:28:06.730Z,32.80
2019-03-16T07:30:39.651Z,32.90
2019-03-16T07:33:14.536Z,32.80
2019-03-16T07:35:59.220Z,32.80
2019-03-16T07:38:33.026Z,32.80
2019-03-16T07:41:10.349Z,32.90
2019-03-16T07:43:42.269Z,32.90
2019-03-16T07:46:18.683Z,32.90
2019-03-16T07:49:10.277Z,33.00
2019-03-16T07:51:40.523Z,33.00
2019-03-16T07:54:13.234Z,33.00
2019-03-16T07:56:52.634Z,33.00
2019-03-16T07:59:24.674Z,33.00
2019-03-16T08:01:55.616Z,33.00
2019-03-16T08:04:26.630Z,33.10
2019-03-16T08:07:03.794Z,33.10
2019-03-16T08:09:39.236Z,33.10
2019-03-16T08:12:10.593Z,33.10
2019-03-16T08:14:41.920Z,33.10
2019-03-16T08:17:13.308Z,33.10
2019-03-16T08:19:47.598Z,33.10
2019-03-16T08:22:18.993Z,33.10
2019-03-16T08:24:50.020Z,33.10
2019-03-16T08:27:24.871Z,33.10
2019-03-16T08:29:58.787Z,33.20
2019-03-16T08:32:32.213Z,33.10
2019-03-16T08:35:04.589Z,33.10
2019-03-16T08:37:38.524Z,33.20
2019-03-16T08:43:45.932Z,33.20
2019-03-16T08:46:21.861Z,33.20
2019-03-16T08:48:56.127Z,33.20
2019-03-16T08:51:29.091Z,33.30
2019-03-16T08:54:03.708Z,33.30
2019-03-16T08:56:34.960Z,33.20
2019-03-16T08:59:06.074Z,33.20
2019-03-16T09:01:44.119Z,33.20
2019-03-16T09:04:15.076Z,33.10
2019-03-16T09:06:47.426Z,33.10
2019-03-16T09:09:19.081Z,33.10
2019-03-16T09:11:50.009Z,33.10
2019-03-16T09:14:21.130Z,33.10
2019-03-16T09:16:52.135Z,33.10
2019-03-16T09:19:23.324Z,33.10
2019-03-16T09:21:57.167Z,33.10
2019-03-16T09:24:28.916Z,33.10
2019-03-16T09:27:00.411Z,33.10
2019-03-16T09:29:31.387Z,33.10
2019-03-16T09:32:02.849Z,33.10
2019-03-16T09:34:38.445Z,33.10
2019-03-16T09:37:11.618Z,33.10
2019-03-16T09:39:42.277Z,33.10
2019-03-16T09:42:13.217Z,33.10
2019-03-16T09:44:44.382Z,33.10
2019-03-16T09:47:19.893Z,33.10
2019-03-16T09:49:51.034Z,33.10
2019-03-16T09:52:21.900Z,33.10
2019-03-16T09:54:53.012Z,33.10
2019-03-16T09:57:23.872Z,33.10
2019-03-16T09:59:56.019Z,33.10
2019-03-16T10:02:32.469Z,33.10
2019-03-16T10:05:07.163Z,33.10
2019-03-16T10:17:20.160Z,33.00
2019-03-16T10:19:58.743Z,33.00
2019-03-16T10:22:31.729Z,32.90
2019-03-16T10:25:03.603Z,32.90
2019-03-16T10:27:35.607Z,32.90
2019-03-16T10:30:10.228Z,32.90
2019-03-16T10:32:41.346Z,32.90
2019-03-16T10:35:12.768Z,32.90
2019-03-16T10:37:45.287Z,32.80
2019-03-16T10:40:16.715Z,32.80
2019-03-16T10:42:47.849Z,32.80
2019-03-16T10:45:18.902Z,32.80
2019-03-16T10:47:50.291Z,32.70
2019-03-16T10:50:21.176Z,32.70
2019-03-16T10:52:52.050Z,32.60
2019-03-16T10:55:22.932Z,32.60
2019-03-16T10:57:53.835Z,32.60
2019-03-16T11:00:25.664Z,32.50
2019-03-16T11:02:56.789Z,32.50
2019-03-16T11:05:28.633Z,32.50
2019-03-16T11:07:59.836Z,32.40
2019-03-16T11:10:30.623Z,32.40
2019-03-16T11:13:01.447Z,32.30
2019-03-16T11:15:32.527Z,32.30
2019-03-16T11:18:04.656Z,32.20
2019-03-16T11:20:35.850Z,32.20
2019-03-16T11:23:06.962Z,32.20
2019-03-16T11:25:38.793Z,32.10
2019-03-16T11:28:11.081Z,32.10
2019-03-16T11:30:42.157Z,32.00
2019-03-16T11:33:13.064Z,32.00
2019-03-16T11:35:44.116Z,32.00
2019-03-16T11:38:18.227Z,31.90
2019-03-16T11:40:49.416Z,31.80
2019-03-16T11:43:20.133Z,31.80
2019-03-16T11:45:51.999Z,31.80
2019-03-16T11:48:23.006Z,31.80
2019-03-16T11:50:54.064Z,31.80
2019-03-16T11:53:25.126Z,31.80
2019-03-16T11:55:56.275Z,31.70
2019-03-16T11:58:28.496Z,31.70
2019-03-16T12:00:59.443Z,31.70
2019-03-16T12:03:30.240Z,31.70
2019-03-16T12:06:01.267Z,31.70
2019-03-16T12:08:32.207Z,31.70
2019-03-16T12:11:03.371Z,31.60
2019-03-16T12:13:34.324Z,31.60
2019-03-16T12:16:06.530Z,31.50
2019-03-16T12:18:38.821Z,31.50
2019-03-16T12:21:09.769Z,31.50
2019-03-16T12:23:40.844Z,31.50
2019-03-16T12:26:12.965Z,31.40
2019-03-16T12:28:44.336Z,31.40
2019-03-16T12:31:15.311Z,31.40
2019-03-16T12:33:46.243Z,31.40
2019-03-16T12:36:17.405Z,31.40
2019-03-16T12:38:48.179Z,31.50
2019-03-16T12:41:19.445Z,31.50
2019-03-16T12:43:50.272Z,31.50
2019-03-16T12:46:21.079Z,31.50
2019-03-16T12:48:52.297Z,31.50
2019-03-16T12:51:23.227Z,31.50
2019-03-16T12:53:54.261Z,31.50
2019-03-16T12:56:25.540Z,31.40
2019-03-16T12:58:56.596Z,31.40
2019-03-16T13:01:27.623Z,31.40
2019-03-16T13:03:58.693Z,31.40
2019-03-16T13:06:29.648Z,31.40
2019-03-16T13:09:01.897Z,31.30
2019-03-16T13:11:32.755Z,31.30
2019-03-16T13:14:15.771Z,31.30
2019-03-16T13:16:47.164Z,31.30
2019-03-16T13:19:17.939Z,31.30
2019-03-16T13:21:49.001Z,31.20
2019-03-16T13:24:20.299Z,31.20
2019-03-16T13:26:51.072Z,31.20
2019-03-16T13:29:22.141Z,31.20
2019-03-16T13:31:52.921Z,31.20
2019-03-16T13:34:23.885Z,31.10
2019-03-16T13:36:54.639Z,31.10
2019-03-16T13:39:25.873Z,31.10
2019-03-16T13:41:56.895Z,31.10
2019-03-16T13:44:27.898Z,31.10
2019-03-16T13:46:58.825Z,31.00
2019-03-16T13:49:29.799Z,31.00
2019-03-16T13:52:00.967Z,31.00
2019-03-16T13:54:32.356Z,31.00
2019-03-16T13:57:03.539Z,31.00
2019-03-16T13:59:35.887Z,31.00
2019-03-16T14:02:07.233Z,30.90
2019-03-16T14:04:39.225Z,30.90
2019-03-16T14:07:11.918Z,30.80
2019-03-16T14:09:44.184Z,30.80
2019-03-16T14:12:16.101Z,30.80
2019-03-16T14:14:49.916Z,30.80
2019-03-16T14:17:31.643Z,30.80
2019-03-16T14:20:03.574Z,30.80
2019-03-16T14:22:37.504Z,30.80
2019-03-16T14:25:10.513Z,30.80
2019-03-16T14:27:42.954Z,30.70
2019-03-16T14:30:34.806Z,30.70
2019-03-16T14:32:52.694Z,30.70
2019-03-16T14:35:25.171Z,30.70
2019-03-16T14:37:58.332Z,30.70
2019-03-16T14:40:29.981Z,30.70
2019-03-16T14:43:01.951Z,30.70
2019-03-16T14:45:34.162Z,30.60
2019-03-16T14:48:08.363Z,30.70
2019-03-16T14:50:44.994Z,30.70
2019-03-16T14:53:16.069Z,30.70
2019-03-16T14:55:48.449Z,30.60
2019-03-16T14:58:22.020Z,30.60
2019-03-16T15:00:53.911Z,30.70
2019-03-16T15:03:25.004Z,30.60
2019-03-16T15:05:57.248Z,30.60
2019-03-16T15:08:31.060Z,30.60
2019-03-16T15:11:02.254Z,30.60
2019-03-16T15:13:35.377Z,30.60
2019-03-16T15:16:06.711Z,30.60
2019-03-16T15:18:40.255Z,30.60
2019-03-16T15:21:11.254Z,30.60
2019-03-16T15:23:43.151Z,30.60
2019-03-16T15:26:14.187Z,30.50
2019-03-16T15:28:55.058Z,30.50
2019-03-16T15:31:28.568Z,30.50
2019-03-16T15:34:02.309Z,30.50
2019-03-16T15:36:33.263Z,30.50
2019-03-16T15:39:05.499Z,30.50
2019-03-16T15:41:36.632Z,30.50
2019-03-16T15:44:07.676Z,30.40
2019-03-16T15:46:39.887Z,30.40
2019-03-16T15:49:10.770Z,30.40
2019-03-16T15:51:44.161Z,30.40
2019-03-16T15:54:15.507Z,30.40
2019-03-16T15:56:46.448Z,30.40
2019-03-16T15:59:17.147Z,30.40
2019-03-16T16:01:48.558Z,30.40
2019-03-16T16:04:20.635Z,30.30
2019-03-16T16:06:54.811Z,30.30
2019-03-16T16:09:26.225Z,30.30
2019-03-16T16:11:57.495Z,30.30
2019-03-16T16:14:28.653Z,30.30
2019-03-16T16:16:59.981Z,30.30
2019-03-16T16:19:32.645Z,30.30
2019-03-16T16:22:04.842Z,30.20
2019-03-16T16:24:36.566Z,30.20
2019-03-16T16:27:08.350Z,30.20
2019-03-16T16:29:39.249Z,30.20
2019-03-16T16:32:10.488Z,30.10
2019-03-16T16:34:41.665Z,30.10
2019-03-16T16:37:13.560Z,30.10
2019-03-16T16:39:44.494Z,30.00
2019-03-16T16:42:15.339Z,30.00
2019-03-16T16:44:46.588Z,29.90
2019-03-16T16:47:17.451Z,29.80
2019-03-16T16:49:48.473Z,29.80
2019-03-16T16:52:19.284Z,29.80
2019-03-16T16:54:50.256Z,29.70
2019-03-16T16:57:21.322Z,29.70
2019-03-16T16:59:52.348Z,29.60
2019-03-16T17:02:23.217Z,29.60
2019-03-16T17:04:54.257Z,29.60
2019-03-16T17:07:25.966Z,29.60
2019-03-16T17:09:57.079Z,29.50
2019-03-16T17:12:27.988Z,29.50
2019-03-16T17:14:59.235Z,29.50
2019-03-16T17:17:35.227Z,29.50
2019-03-16T17:20:02.335Z,29.50
2019-03-16T17:22:33.174Z,29.50
2019-03-16T17:25:04.109Z,29.50
2019-03-16T17:27:35.095Z,29.50
2019-03-16T17:30:07.612Z,29.50
2019-03-16T17:32:38.581Z,29.50
2019-03-16T17:35:11.219Z,29.50
2019-03-16T17:37:42.254Z,29.50
2019-03-16T17:40:14.824Z,29.50
2019-03-16T17:42:45.841Z,29.50
2019-03-16T17:45:17.085Z,29.50
2019-03-16T17:47:48.051Z,29.50
2019-03-16T17:50:19.405Z,29.60
2019-03-16T17:52:50.552Z,29.60
2019-03-16T17:55:22.107Z,29.60
2019-03-16T17:57:53.020Z,29.60
2019-03-16T18:00:24.059Z,29.60
2019-03-16T18:02:55.010Z,29.60
2019-03-16T18:05:26.016Z,29.60
2019-03-16T18:07:56.990Z,29.60
2019-03-16T18:10:27.679Z,29.60
2019-03-16T18:12:58.382Z,29.60
2019-03-16T18:15:29.314Z,29.60
2019-03-16T18:18:00.225Z,29.50
2019-03-16T18:20:31.278Z,29.50
2019-03-16T18:23:02.200Z,29.50
2019-03-16T18:25:32.968Z,29.50
2019-03-16T18:28:04.044Z,29.40
2019-03-16T18:30:35.290Z,29.40
2019-03-16T18:33:06.219Z,29.40
2019-03-16T18:35:37.119Z,29.30
2019-03-16T18:38:08.280Z,29.30
2019-03-16T18:40:39.040Z,29.30
2019-03-16T18:43:10.106Z,29.30
2019-03-16T18:45:41.016Z,29.30
2019-03-16T18:48:12.153Z,29.30
2019-03-16T18:50:43.036Z,29.30
2019-03-16T18:53:14.273Z,29.30
2019-03-16T18:55:45.179Z,29.30
2019-03-16T18:58:16.145Z,29.30
2019-03-16T19:00:47.083Z,29.30
2019-03-16T19:03:18.132Z,29.30
2019-03-16T19:05:49.620Z,29.30
2019-03-16T19:08:20.443Z,29.20
2019-03-16T19:10:53.203Z,29.10
2019-03-16T19:13:23.751Z,29.10
2019-03-16T19:15:54.827Z,29.10
2019-03-16T19:18:26.129Z,29.10
2019-03-16T19:20:57.057Z,29.10
2019-03-16T19:23:28.135Z,29.00
2019-03-16T19:25:59.086Z,29.00
2019-03-16T19:28:30.064Z,29.00
2019-03-16T19:31:00.992Z,29.00
2019-03-16T19:33:32.156Z,28.90
2019-03-16T19:36:02.925Z,28.90
2019-03-16T19:38:33.852Z,28.90
2019-03-16T19:41:05.031Z,28.80
2019-03-16T19:43:35.771Z,28.80
2019-03-16T19:46:06.869Z,28.80
2019-03-16T19:48:38.857Z,28.70
2019-03-16T19:51:09.779Z,28.70
2019-03-16T19:53:40.714Z,28.70
2019-03-16T19:56:11.766Z,28.70
2019-03-16T19:58:42.734Z,28.70
2019-03-16T20:01:13.659Z,28.60
2019-03-16T20:03:44.839Z,28.70
2019-03-16T20:06:25.767Z,28.60
2019-03-16T20:08:50.668Z,28.60
2019-03-16T20:11:21.812Z,28.60
2019-03-16T20:13:52.981Z,28.60
2019-03-16T20:16:24.255Z,28.60
2019-03-16T20:18:55.284Z,28.50
2019-03-16T20:21:26.267Z,28.60
2019-03-16T20:23:57.357Z,28.60
2019-03-16T20:26:28.446Z,28.50
2019-03-16T20:28:59.474Z,28.50
2019-03-16T20:31:30.283Z,28.50
2019-03-16T20:34:03.135Z,28.50
2019-03-16T20:36:33.951Z,28.50
2019-03-16T20:39:05.883Z,28.50
2019-03-16T20:41:36.917Z,28.50
2019-03-16T20:44:08.086Z,28.50
2019-03-16T20:46:39.094Z,28.50
2019-03-16T20:49:09.867Z,28.50
2019-03-16T20:51:41.147Z,28.50
2019-03-16T20:54:12.079Z,28.50
2019-03-16T20:56:43.128Z,28.50
2019-03-16T20:59:14.075Z,28.40
2019-03-16T21:01:44.939Z,28.40
2019-03-16T21:04:15.861Z,28.40
2019-03-16T21:06:48.071Z,28.40
2019-03-16T21:09:18.954Z,28.40
2019-03-16T21:11:50.047Z,28.30
2019-03-16T21:14:21.821Z,28.20
2019-03-16T21:19:21.639Z,28.30
2019-03-16T21:21:52.846Z,28.20
2019-03-16T21:24:23.683Z,28.30
2019-03-16T21:26:56.032Z,28.20
2019-03-16T21:29:26.952Z,28.20
2019-03-16T21:31:57.884Z,28.20
2019-03-16T21:34:30.103Z,28.20
2019-03-16T21:37:09.927Z,28.20
2019-03-16T21:39:40.946Z,28.10
2019-03-16T21:42:11.718Z,28.10
2019-03-16T21:44:42.821Z,28.10
2019-03-16T21:47:13.955Z,28.10
2019-03-16T21:49:44.862Z,28.00
2019-03-16T21:52:16.655Z,28.00
2019-03-16T21:54:49.943Z,28.00
2019-03-16T21:57:21.511Z,28.00
2019-03-16T21:59:53.618Z,27.90
2019-03-16T22:02:24.753Z,27.90
2019-03-16T22:04:55.768Z,27.90
2019-03-16T22:07:26.650Z,27.80
2019-03-16T22:09:57.620Z,27.80
2019-03-16T22:12:28.756Z,27.80
2019-03-16T22:14:59.596Z,27.80
2019-03-16T22:17:30.704Z,27.70
2019-03-16T22:20:01.667Z,27.70
2019-03-16T22:22:32.584Z,27.70
2019-03-16T22:25:03.813Z,27.70
2019-03-16T22:27:34.967Z,27.60
2019-03-16T22:30:07.694Z,27.60
2019-03-16T22:32:38.661Z,27.60
2019-03-16T22:35:09.985Z,27.60
2019-03-16T22:37:59.867Z,27.60
2019-03-16T22:40:31.048Z,27.50
2019-03-16T22:43:01.985Z,27.50
2019-03-16T22:45:33.069Z,27.50
2019-03-16T22:48:04.209Z,27.50
2019-03-16T22:50:35.505Z,27.50
2019-03-16T22:53:08.605Z,27.50
2019-03-16T22:55:39.761Z,27.50
2019-03-16T22:58:10.574Z,27.50
2019-03-16T23:00:43.371Z,27.40
2019-03-16T23:03:14.825Z,27.40
2019-03-16T23:05:45.832Z,27.40
2019-03-16T23:08:16.648Z,27.30
2019-03-16T23:10:47.589Z,27.30
2019-03-16T23:13:18.866Z,27.30
2019-03-16T23:15:49.835Z,27.30
2019-03-16T23:18:21.090Z,27.30
2019-03-16T23:20:51.989Z,27.20
2019-03-16T23:23:23.233Z,27.20
2019-03-16T23:25:54.162Z,27.20
2019-03-16T23:28:25.168Z,27.20
2019-03-16T23:30:56.242Z,27.20
2019-03-16T23:33:27.160Z,27.20
2019-03-16T23:35:58.261Z,27.10
2019-03-16T23:38:28.934Z,27.20
2019-03-16T23:41:00.072Z,27.20
2019-03-16T23:43:31.232Z,27.10
2019-03-16T23:46:02.073Z,27.10
2019-03-16T23:48:33.275Z,27.10
2019-03-16T23:51:09.480Z,27.10
2019-03-16T23:53:40.615Z,27.00
2019-03-16T23:56:12.700Z,27.00
2019-03-16T23:58:45.844Z,27.00
